createdAt,value
2024-04-22T00:00:48.865Z,99373.66
2024-04-22T00:03:15.813Z,99363.81
2024-04-22T00:05:42.741Z,99359.72
2024-04-22T00:08:09.689Z,99357.22
2024-04-22T00:10:36.613Z,99347.56
2024-04-22T00:13:03.696Z,99349.78
2024-04-22T00:15:30.629Z,99412.66
2024-04-22T00:17:57.622Z,99379.56
2024-04-22T00:20:24.518Z,99364.13
2024-04-22T00:22:51.431Z,99358.59
2024-04-22T00:25:18.440Z,99377.16
2024-04-22T00:27:45.394Z,99365.34
2024-04-22T00:30:12.362Z,99403.47
2024-04-22T00:32:39.318Z,99348.50
2024-04-22T00:35:06.449Z,99371.25
2024-04-22T00:37:33.386Z,99378.28
2024-04-22T00:40:00.414Z,99329.75
2024-04-22T00:42:27.392Z,99357.66
2024-04-22T00:44:54.288Z,99354.13
2024-04-22T00:47:21.410Z,99340.72
2024-04-22T00:49:49.394Z,99310.59
2024-04-22T00:52:16.387Z,99351.31
2024-04-22T00:54:43.452Z,99321.63
2024-04-22T00:57:11.911Z,99309.28
2024-04-22T00:59:39.307Z,99346.19
2024-04-22T01:02:06.824Z,99346.06
2024-04-22T01:04:36.582Z,99382.31
2024-04-22T01:07:03.621Z,99379.47
2024-04-22T01:09:30.553Z,99387.88
2024-04-22T01:11:57.493Z,99368.25
2024-04-22T01:14:24.750Z,99374.47
2024-04-22T01:16:55.904Z,99347.00
2024-04-22T01:19:24.104Z,99388.13
2024-04-22T01:21:52.136Z,99392.66
2024-04-22T01:24:20.328Z,99360.78
2024-04-22T01:26:47.995Z,99326.38
2024-04-22T01:29:14.981Z,99378.03
2024-04-22T01:31:41.899Z,99395.09
2024-04-22T01:34:09.057Z,99342.13
2024-04-22T01:36:37.788Z,99373.81
2024-04-22T01:39:04.844Z,99379.63
2024-04-22T01:41:31.786Z,99370.78
2024-04-22T01:43:58.792Z,99392.75
2024-04-22T01:46:25.823Z,99415.78
2024-04-22T01:48:52.832Z,99369.47
2024-04-22T01:51:19.745Z,99405.50
2024-04-22T01:53:46.719Z,99376.31
2024-04-22T01:56:13.631Z,99343.41
2024-04-22T01:58:40.583Z,99334.91
2024-04-22T02:01:09.236Z,99393.50
2024-04-22T02:03:36.254Z,99411.28
2024-04-22T02:06:03.255Z,99380.06
2024-04-22T02:08:30.182Z,99391.94
2024-04-22T02:10:57.279Z,99373.31
2024-04-22T02:13:25.737Z,99339.84
2024-04-22T02:15:52.713Z,99383.59
2024-04-22T02:18:19.696Z,99361.69
2024-04-22T02:20:46.707Z,99314.47
2024-04-22T02:23:13.763Z,99349.81
2024-04-22T02:25:41.169Z,99345.66
2024-04-22T02:28:08.204Z,99319.53
2024-04-22T02:30:35.251Z,99318.88
2024-04-22T02:33:02.226Z,99355.31
2024-04-22T02:35:29.240Z,99396.81
2024-04-22T02:37:56.105Z,99387.72
2024-04-22T02:40:23.071Z,99325.41
2024-04-22T02:42:49.995Z,99350.81
2024-04-22T02:45:16.965Z,99380.91
2024-04-22T02:47:43.918Z,99389.19
2024-04-22T02:50:10.943Z,99314.66
2024-04-22T02:52:37.931Z,99339.25
2024-04-22T02:55:05.067Z,99365.50
2024-04-22T02:57:31.983Z,99359.59
2024-04-22T02:59:58.984Z,99326.72
2024-04-22T03:02:26.012Z,99378.91
2024-04-22T03:04:53.040Z,99364.75
2024-04-22T03:07:20.144Z,99349.00
2024-04-22T03:09:47.044Z,99349.19
2024-04-22T03:12:14.663Z,99337.56
2024-04-22T03:14:41.824Z,99304.38
2024-04-22T03:17:08.809Z,99324.41
2024-04-22T03:19:35.890Z,99359.34
2024-04-22T03:22:02.995Z,99322.25
2024-04-22T03:24:29.961Z,99358.00
2024-04-22T03:26:56.875Z,99348.72
2024-04-22T03:29:23.793Z,99353.81
2024-04-22T03:31:50.789Z,99352.47
2024-04-22T03:34:17.822Z,99387.91
2024-04-22T03:36:44.744Z,99233.81
2024-04-22T03:39:11.702Z,99372.31
2024-04-22T03:41:38.651Z,99383.53
2024-04-22T03:44:05.628Z,99280.63
2024-04-22T03:46:51.720Z,99360.75
2024-04-22T03:49:36.908Z,99349.22
2024-04-22T03:52:04.648Z,99337.22
2024-04-22T03:54:31.699Z,99381.69
2024-04-22T03:56:58.713Z,99401.53
2024-04-22T03:59:25.641Z,99390.06
2024-04-22T04:01:52.655Z,99372.16
2024-04-22T04:04:19.781Z,99360.78
2024-04-22T04:06:46.774Z,99383.03
2024-04-22T04:09:13.732Z,99375.91
2024-04-22T04:11:41.354Z,99333.81
2024-04-22T04:14:08.900Z,99412.19
2024-04-22T04:16:36.087Z,99397.66
2024-04-22T04:19:03.937Z,99384.25
2024-04-22T04:21:31.102Z,99396.81
2024-04-22T04:23:58.018Z,99380.78
2024-04-22T04:26:24.947Z,99345.31
2024-04-22T04:28:52.075Z,99415.41
2024-04-22T04:31:19.919Z,99417.06
2024-04-22T04:33:47.090Z,99364.75
2024-04-22T04:36:14.030Z,99378.00
2024-04-22T04:38:40.943Z,99372.16
2024-04-22T04:41:07.853Z,99403.59
2024-04-22T04:43:34.868Z,99380.84
2024-04-22T04:46:01.801Z,99393.34
2024-04-22T04:48:29.588Z,99379.03
2024-04-22T04:50:56.540Z,99404.31
2024-04-22T04:53:23.543Z,99355.38
2024-04-22T04:55:50.679Z,99407.69
2024-04-22T04:58:19.542Z,99403.97
2024-04-22T05:00:47.588Z,99426.75
2024-04-22T05:03:15.130Z,99373.25
2024-04-22T05:05:42.093Z,99377.28
2024-04-22T05:08:09.098Z,99436.09
2024-04-22T05:10:36.218Z,99372.69
2024-04-22T05:13:03.282Z,99327.66
2024-04-22T05:15:30.306Z,99449.50
2024-04-22T05:17:57.274Z,99431.59
2024-04-22T05:20:24.239Z,99409.66
2024-04-22T05:22:51.211Z,99419.97
2024-04-22T05:25:18.172Z,99377.59
2024-04-22T05:27:45.110Z,99403.41
2024-04-22T05:30:12.270Z,99430.59
2024-04-22T05:32:39.537Z,99456.56
2024-04-22T05:35:25.188Z,99416.81
2024-04-22T05:37:52.190Z,99428.16
2024-04-22T05:40:19.210Z,99467.00
2024-04-22T05:42:46.191Z,99421.44
2024-04-22T05:45:13.145Z,99404.19
2024-04-22T05:47:40.185Z,99437.66
2024-04-22T05:50:07.509Z,99440.88
2024-04-22T05:52:34.522Z,99453.00
2024-04-22T05:55:02.277Z,99414.06
2024-04-22T05:57:29.242Z,99458.16
2024-04-22T05:59:56.380Z,99431.38
2024-04-22T06:02:23.342Z,99454.50
2024-04-22T06:04:50.363Z,99415.41
2024-04-22T06:07:17.376Z,99443.16
2024-04-22T06:09:44.302Z,99440.69
2024-04-22T06:12:17.808Z,99435.31
2024-04-22T06:14:47.104Z,99473.84
2024-04-22T06:17:14.273Z,99420.41
2024-04-22T06:19:41.544Z,99433.63
2024-04-22T06:22:08.683Z,99421.91
2024-04-22T06:24:35.621Z,99461.47
2024-04-22T06:27:02.595Z,99449.28
2024-04-22T06:29:29.529Z,99416.31
2024-04-22T06:31:56.583Z,99477.13
2024-04-22T06:34:23.605Z,99424.84
2024-04-22T06:36:50.546Z,99479.69
2024-04-22T06:39:17.810Z,99444.84
2024-04-22T06:41:44.898Z,99483.06
2024-04-22T06:44:12.066Z,99449.47
2024-04-22T06:46:39.578Z,99479.19
2024-04-22T06:49:06.878Z,99478.59
2024-04-22T06:51:33.795Z,99478.50
2024-04-22T06:54:00.714Z,99494.13
2024-04-22T06:56:28.392Z,99503.66
2024-04-22T06:58:55.506Z,99493.53
2024-04-22T07:01:31.005Z,99480.91
2024-04-22T07:04:05.563Z,99454.47
2024-04-22T07:06:32.836Z,99457.81
2024-04-22T07:09:00.047Z,99481.81
2024-04-22T07:11:27.107Z,99486.16
2024-04-22T07:13:54.165Z,99492.09
2024-04-22T07:16:21.849Z,99508.22
2024-04-22T07:18:51.899Z,99498.78
2024-04-22T07:21:20.898Z,99495.69
2024-04-22T07:23:48.223Z,99480.78
2024-04-22T07:26:15.147Z,99466.91
2024-04-22T07:28:42.766Z,99453.84
2024-04-22T07:31:10.116Z,99448.72
2024-04-22T07:33:37.594Z,99487.03
2024-04-22T07:36:22.662Z,99500.72
2024-04-22T07:38:51.354Z,99490.47
2024-04-22T07:41:18.569Z,99483.88
2024-04-22T07:43:45.589Z,99506.56
2024-04-22T07:46:14.210Z,99488.03
2024-04-22T07:48:41.202Z,99513.06
2024-04-22T07:51:08.137Z,99488.09
2024-04-22T07:53:35.291Z,99484.16
2024-04-22T07:56:02.600Z,99504.59
2024-04-22T07:58:30.078Z,99516.59
2024-04-22T08:00:57.324Z,99509.09
2024-04-22T08:03:24.546Z,99454.19
2024-04-22T08:05:54.540Z,99482.25
2024-04-22T08:08:22.889Z,99456.59
2024-04-22T08:10:50.568Z,99452.03
2024-04-22T08:13:17.549Z,99473.16
2024-04-22T08:15:44.484Z,99480.22
2024-04-22T08:18:11.921Z,99501.03
2024-04-22T08:20:38.865Z,99503.63
2024-04-22T08:23:05.831Z,99449.06
2024-04-22T08:25:32.724Z,99489.66
2024-04-22T08:27:59.752Z,99492.66
2024-04-22T08:30:27.820Z,99504.38
2024-04-22T08:32:58.319Z,99485.34
2024-04-22T08:35:25.350Z,99485.28
2024-04-22T08:37:52.307Z,99491.75
2024-04-22T08:40:24.757Z,99480.19
2024-04-22T08:42:54.464Z,99493.31
2024-04-22T08:45:21.476Z,99487.91
2024-04-22T08:47:50.593Z,99476.88
2024-04-22T08:50:17.567Z,99513.50
2024-04-22T08:52:51.645Z,99505.13
2024-04-22T08:55:23.588Z,99510.38
2024-04-22T08:57:50.949Z,99490.44
2024-04-22T09:00:17.937Z,99478.44
2024-04-22T09:02:45.239Z,99500.97
2024-04-22T09:05:12.383Z,99519.50
2024-04-22T09:07:39.500Z,99508.28
2024-04-22T09:10:34.696Z,99495.41
2024-04-22T09:13:00.693Z,99527.63
2024-04-22T09:15:29.186Z,99503.06
2024-04-22T09:17:57.033Z,99471.66
2024-04-22T09:20:26.803Z,99510.53
2024-04-22T09:22:54.003Z,99470.19
2024-04-22T09:25:21.224Z,99512.22
2024-04-22T09:27:51.889Z,99507.66
2024-04-22T09:30:24.949Z,99538.00
2024-04-22T09:32:55.367Z,99525.38
2024-04-22T09:35:22.915Z,99533.09
2024-04-22T09:37:51.519Z,99531.47
2024-04-22T09:40:20.349Z,99531.03
2024-04-22T09:42:48.934Z,99519.59
2024-04-22T09:45:16.952Z,99514.44
2024-04-22T09:47:45.254Z,99490.09
2024-04-22T09:50:12.692Z,99499.88
2024-04-22T09:52:40.870Z,99503.19
2024-04-22T09:55:11.086Z,99479.91
2024-04-22T09:57:43.064Z,99526.84
2024-04-22T10:00:10.739Z,99542.13
2024-04-22T10:02:38.791Z,99523.47
2024-04-22T10:05:14.945Z,99543.09
2024-04-22T10:07:42.351Z,99544.22
2024-04-22T10:10:10.777Z,99504.09
2024-04-22T10:12:38.404Z,99543.22
2024-04-22T10:15:23.636Z,99516.09
2024-04-22T10:17:50.679Z,99533.41
2024-04-22T10:20:18.817Z,99516.16
2024-04-22T10:22:46.130Z,99536.53
2024-04-22T10:25:19.738Z,99552.72
2024-04-22T10:27:46.880Z,99559.47
2024-04-22T10:30:13.873Z,99538.63
2024-04-22T10:32:40.846Z,99521.28
2024-04-22T10:35:07.844Z,99514.91
2024-04-22T10:37:34.929Z,99507.53
2024-04-22T10:40:01.890Z,99530.84
2024-04-22T10:42:29.925Z,99426.84
2024-04-22T10:44:56.976Z,99572.03
2024-04-22T10:47:24.147Z,99556.84
2024-04-22T10:49:51.339Z,99555.63
2024-04-22T10:52:18.486Z,99494.72
2024-04-22T10:54:46.877Z,99512.78
2024-04-22T10:57:14.961Z,99514.84
2024-04-22T10:59:42.062Z,99582.47
2024-04-22T11:02:11.272Z,99585.31
2024-04-22T11:04:41.753Z,99587.53
2024-04-22T11:07:08.816Z,99563.56
2024-04-22T11:09:36.123Z,99594.38
2024-04-22T11:12:03.697Z,99558.75
2024-04-22T11:14:33.808Z,99530.09
2024-04-22T11:17:00.840Z,99595.28
2024-04-22T11:19:28.161Z,99575.97
2024-04-22T11:21:55.196Z,99552.31
2024-04-22T11:24:22.517Z,99552.34
2024-04-22T11:26:49.620Z,99575.13
2024-04-22T11:29:16.721Z,99598.34
2024-04-22T11:31:45.394Z,99571.47
2024-04-22T11:34:12.768Z,99570.63
2024-04-22T11:36:40.352Z,99556.78
2024-04-22T11:39:13.198Z,99606.72
2024-04-22T11:41:40.277Z,99521.69
2024-04-22T11:44:07.883Z,99608.88
2024-04-22T11:46:35.064Z,99555.22
2024-04-22T11:49:02.034Z,99582.88
2024-04-22T11:51:29.093Z,99588.31
2024-04-22T11:53:56.007Z,99585.75
2024-04-22T11:56:27.254Z,99622.38
2024-04-22T11:58:54.257Z,99576.44
2024-04-22T12:01:21.200Z,99554.22
2024-04-22T12:03:48.289Z,99593.97
2024-04-22T12:06:15.488Z,99533.69
2024-04-22T12:08:42.446Z,99601.41
2024-04-22T12:11:09.803Z,99561.16
2024-04-22T12:13:36.776Z,99577.75
2024-04-22T12:16:04.033Z,99493.59
2024-04-22T12:18:31.037Z,99591.50
2024-04-22T12:20:58.731Z,99616.31
2024-04-22T12:23:25.805Z,99629.19
2024-04-22T12:25:55.055Z,99573.19
2024-04-22T12:28:22.694Z,99587.25
2024-04-22T12:30:52.816Z,99627.63
2024-04-22T12:33:20.302Z,99538.84
2024-04-22T12:35:47.313Z,99579.84
2024-04-22T12:38:14.214Z,99607.69
2024-04-22T12:40:41.833Z,99637.50
2024-04-22T12:43:11.785Z,99631.31
2024-04-22T12:45:42.326Z,99643.31
2024-04-22T12:48:38.982Z,99608.41
2024-04-22T12:51:07.030Z,99650.34
2024-04-22T12:53:34.004Z,99603.25
2024-04-22T12:56:02.045Z,99630.19
2024-04-22T12:58:29.978Z,99592.44
2024-04-22T13:00:57.131Z,99607.81
2024-04-22T13:03:24.172Z,99637.53
2024-04-22T13:05:51.177Z,99647.28
2024-04-22T13:08:18.155Z,99615.50
2024-04-22T13:10:45.244Z,99681.28
2024-04-22T13:13:12.306Z,99671.41
2024-04-22T13:15:39.240Z,99659.97
2024-04-22T13:18:06.430Z,99677.91
2024-04-22T13:20:34.067Z,99667.09
2024-04-22T13:23:01.049Z,99653.53
2024-04-22T13:25:28.193Z,99694.34
2024-04-22T13:27:56.199Z,99643.06
2024-04-22T13:30:23.187Z,99686.53
2024-04-22T13:32:52.345Z,99619.94
2024-04-22T13:35:19.566Z,99662.91
2024-04-22T13:37:46.972Z,99687.06
2024-04-22T13:40:14.146Z,99577.25
2024-04-22T13:42:45.590Z,99699.16
2024-04-22T13:45:14.565Z,99673.34
2024-04-22T13:47:41.577Z,99725.13
2024-04-22T13:50:08.611Z,99723.66
2024-04-22T13:52:35.680Z,99691.00
2024-04-22T13:55:05.798Z,99690.25
2024-04-22T13:57:39.023Z,99713.00
2024-04-22T14:00:09.588Z,99721.75
2024-04-22T14:02:38.475Z,99650.34
2024-04-22T14:05:05.752Z,99701.38
2024-04-22T14:07:32.887Z,99697.72
2024-04-22T14:09:59.823Z,99681.41
2024-04-22T14:12:26.812Z,99728.34
2024-04-22T14:14:53.789Z,99683.63
2024-04-22T14:17:21.679Z,99718.50
2024-04-22T14:19:48.692Z,99650.53
2024-04-22T14:22:15.725Z,99716.34
2024-04-22T14:24:43.077Z,99711.72
2024-04-22T14:27:10.005Z,99691.81
2024-04-22T14:29:36.979Z,99737.88
2024-04-22T14:32:05.334Z,99734.56
2024-04-22T14:34:32.356Z,99762.44
2024-04-22T14:36:59.279Z,99758.97
2024-04-22T14:39:26.212Z,99724.94
2024-04-22T14:41:53.114Z,99735.38
2024-04-22T14:44:20.088Z,99726.44
2024-04-22T14:46:47.075Z,99762.81
2024-04-22T14:49:14.057Z,99752.50
2024-04-22T14:51:41.010Z,99713.09
2024-04-22T14:54:08.727Z,99742.13
2024-04-22T14:56:35.799Z,99623.53
2024-04-22T14:59:05.636Z,99759.53
2024-04-22T15:01:34.201Z,99710.81
2024-04-22T15:04:01.374Z,99764.97
2024-04-22T15:06:28.390Z,99709.09
2024-04-22T15:08:56.182Z,99761.03
2024-04-22T15:11:25.437Z,99639.00
2024-04-22T15:13:52.640Z,99772.63
2024-04-22T15:16:21.237Z,99793.38
2024-04-22T15:18:48.224Z,99795.50
2024-04-22T15:21:15.593Z,99775.06
2024-04-22T15:23:42.602Z,99771.88
2024-04-22T15:26:09.538Z,99761.94
2024-04-22T15:28:36.587Z,99722.44
2024-04-22T15:31:06.350Z,99775.59
2024-04-22T15:33:33.598Z,99779.69
2024-04-22T15:36:01.614Z,99778.31
2024-04-22T15:38:28.571Z,99744.91
2024-04-22T15:40:56.142Z,99740.03
2024-04-22T15:43:23.230Z,99730.97
2024-04-22T15:45:50.169Z,99797.88
2024-04-22T15:48:23.715Z,99769.44
2024-04-22T15:50:51.531Z,99800.06
2024-04-22T15:53:19.306Z,99800.16
2024-04-22T15:55:57.469Z,99776.75
2024-04-22T15:58:24.895Z,99764.69
2024-04-22T16:00:53.189Z,99796.94
2024-04-22T16:03:20.303Z,99771.59
2024-04-22T16:05:47.580Z,99802.31
2024-04-22T16:08:14.603Z,99771.75
2024-04-22T16:10:44.553Z,99767.63
2024-04-22T16:13:11.467Z,99803.88
2024-04-22T16:15:39.491Z,99736.25
2024-04-22T16:18:08.761Z,99797.06
2024-04-22T16:20:35.657Z,99725.06
2024-04-22T16:23:05.676Z,99789.34
2024-04-22T16:25:33.668Z,99753.25
2024-04-22T16:28:00.847Z,99800.06
2024-04-22T16:30:27.797Z,99779.28
2024-04-22T16:32:55.002Z,99765.56
2024-04-22T16:35:22.046Z,99705.25
2024-04-22T16:37:49.264Z,99760.97
2024-04-22T16:40:16.298Z,99764.63
2024-04-22T16:42:43.282Z,99780.13
2024-04-22T16:45:11.177Z,99794.59
2024-04-22T16:47:38.507Z,99806.16
2024-04-22T16:50:06.553Z,99792.44
2024-04-22T16:52:34.776Z,99823.25
2024-04-22T16:55:01.790Z,99783.41
2024-04-22T16:57:28.801Z,99807.75
2024-04-22T16:59:56.914Z,99800.13
2024-04-22T17:02:24.358Z,99781.88
2024-04-22T17:04:51.416Z,99799.47
2024-04-22T17:07:18.366Z,99832.72
2024-04-22T17:09:45.358Z,99741.66
2024-04-22T17:12:12.268Z,99799.44
2024-04-22T17:14:39.221Z,99812.31
2024-04-22T17:17:08.241Z,99810.03
2024-04-22T17:19:35.874Z,99825.91
2024-04-22T17:22:02.895Z,99824.84
2024-04-22T17:24:29.836Z,99818.50
2024-04-22T17:26:59.588Z,99850.97
2024-04-22T17:29:26.991Z,99855.63
2024-04-22T17:31:54.097Z,99844.22
2024-04-22T17:34:21.085Z,99800.72
2024-04-22T17:36:47.972Z,99832.13
2024-04-22T17:39:15.321Z,99787.44
2024-04-22T17:41:42.302Z,99825.19
2024-04-22T17:44:09.321Z,99854.16
2024-04-22T17:46:36.242Z,99865.53
2024-04-22T17:49:06.524Z,99834.22
2024-04-22T17:51:36.870Z,99849.03
2024-04-22T17:54:03.954Z,99866.22
2024-04-22T17:56:33.456Z,99864.59
2024-04-22T17:59:00.777Z,99842.16
2024-04-22T18:01:27.769Z,99890.84
2024-04-22T18:03:54.751Z,99862.13
2024-04-22T18:06:21.815Z,99864.09
2024-04-22T18:08:49.600Z,99885.75
2024-04-22T18:11:17.018Z,99852.06
2024-04-22T18:13:44.186Z,99780.88
2024-04-22T18:16:11.167Z,99879.56
2024-04-22T18:18:38.166Z,99780.63
2024-04-22T18:21:06.965Z,99793.56
2024-04-22T18:23:34.141Z,99902.34
2024-04-22T18:26:09.254Z,99841.56
2024-04-22T18:28:40.503Z,99915.47
2024-04-22T18:31:07.610Z,99928.19
2024-04-22T18:33:34.856Z,99911.41
2024-04-22T18:36:01.909Z,99882.97
2024-04-22T18:38:29.367Z,99921.97
2024-04-22T18:40:56.385Z,99901.03
2024-04-22T18:43:23.440Z,99913.91
2024-04-22T18:45:50.444Z,99918.22
2024-04-22T18:48:17.474Z,99923.56
2024-04-22T18:50:44.616Z,99927.44
2024-04-22T18:53:12.170Z,99921.50
2024-04-22T18:55:39.174Z,99918.88
2024-04-22T18:58:06.884Z,99947.88
2024-04-22T19:00:34.013Z,99909.59
2024-04-22T19:03:01.008Z,99943.94
2024-04-22T19:05:27.977Z,99907.47
2024-04-22T19:07:55.066Z,99933.75
2024-04-22T19:10:23.048Z,99928.88
2024-04-22T19:12:51.403Z,99907.78
2024-04-22T19:15:18.962Z,99940.13
2024-04-22T19:17:46.121Z,99942.22
2024-04-22T19:20:13.575Z,99958.06
2024-04-22T19:22:40.743Z,99928.56
2024-04-22T19:25:09.099Z,99910.94
2024-04-22T19:27:36.077Z,99963.53
2024-04-22T19:30:03.197Z,99931.47
2024-04-22T19:32:30.672Z,99969.78
2024-04-22T19:34:57.784Z,99938.41
2024-04-22T19:37:24.853Z,99900.22
2024-04-22T19:39:51.774Z,99916.34
2024-04-22T19:42:18.755Z,99942.03
2024-04-22T19:44:45.756Z,99933.47
2024-04-22T19:47:12.939Z,99928.53
2024-04-22T19:49:39.953Z,99944.66
2024-04-22T19:52:08.135Z,99956.00
2024-04-22T19:54:35.112Z,99856.59
2024-04-22T19:57:02.028Z,99963.91
2024-04-22T19:59:28.958Z,99929.22
2024-04-22T20:01:55.965Z,99954.75
2024-04-22T20:04:23.136Z,99963.31
2024-04-22T20:06:50.158Z,99937.72
2024-04-22T20:09:17.066Z,99965.78
2024-04-22T20:11:44.074Z,99948.34
2024-04-22T20:14:11.119Z,99827.13
2024-04-22T20:16:49.429Z,99851.97
2024-04-22T20:19:20.266Z,99971.09
2024-04-22T20:21:47.462Z,99930.75
2024-04-22T20:24:18.280Z,99984.75
2024-04-22T20:26:45.355Z,99896.41
2024-04-22T20:29:12.285Z,99942.09
2024-04-22T20:31:39.414Z,99960.03
2024-04-22T20:34:06.472Z,99924.59
2024-04-22T20:36:33.467Z,99994.44
2024-04-22T20:39:00.418Z,99987.72
2024-04-22T20:41:27.373Z,99940.34
2024-04-22T20:44:00.318Z,100000.16
2024-04-22T20:46:27.432Z,99981.19
2024-04-22T20:48:54.600Z,100005.88
2024-04-22T20:51:21.672Z,99913.59
2024-04-22T20:53:48.632Z,99986.72
2024-04-22T20:56:15.558Z,99994.59
2024-04-22T20:58:42.506Z,99994.59
2024-04-22T21:01:10.605Z,100013.31
2024-04-22T21:03:37.676Z,100003.13
2024-04-22T21:06:05.808Z,99986.25
2024-04-22T21:08:34.039Z,99970.47
2024-04-22T21:11:03.341Z,99987.16
2024-04-22T21:13:41.659Z,99936.78
2024-04-22T21:16:10.178Z,100010.38
2024-04-22T21:18:37.697Z,99955.25
2024-04-22T21:21:05.058Z,99999.41
2024-04-22T21:23:32.710Z,100023.31
2024-04-22T21:25:59.770Z,100007.91
2024-04-22T21:28:26.721Z,100030.25
2024-04-22T21:30:53.651Z,99952.25
2024-04-22T21:33:35.334Z,100001.41
2024-04-22T21:36:07.675Z,99956.47
2024-04-22T21:38:34.630Z,99973.47
2024-04-22T21:41:01.548Z,99983.78
2024-04-22T21:43:28.574Z,99967.66
2024-04-22T21:45:55.674Z,99973.66
2024-04-22T21:48:25.111Z,100007.78
2024-04-22T21:50:53.028Z,100015.19
2024-04-22T21:53:23.479Z,100021.16
2024-04-22T21:55:51.798Z,100013.72
2024-04-22T21:58:56.500Z,100016.75
2024-04-22T22:02:01.516Z,100009.97
2024-04-22T22:05:06.430Z,100011.91
2024-04-22T22:07:33.331Z,100010.97
2024-04-22T22:10:00.547Z,100005.19
2024-04-22T22:12:27.475Z,100003.97
2024-04-22T22:14:54.459Z,99988.69
2024-04-22T22:17:21.603Z,99983.09
2024-04-22T22:19:50.603Z,100007.88
2024-04-22T22:22:18.357Z,99969.91
2024-04-22T22:24:46.361Z,100009.16
2024-04-22T22:27:15.220Z,100004.25
2024-04-22T22:29:42.914Z,100013.75
2024-04-22T22:32:10.580Z,99980.66
2024-04-22T22:34:37.881Z,99992.56
2024-04-22T22:37:06.715Z,100019.63
2024-04-22T22:39:34.807Z,100022.38
2024-04-22T22:42:02.250Z,99991.06
2024-04-22T22:44:29.139Z,100008.13
2024-04-22T22:47:06.719Z,99972.03
2024-04-22T22:49:34.087Z,100004.00
2024-04-22T22:52:01.146Z,100005.00
2024-04-22T22:54:28.104Z,99962.47
2024-04-22T22:56:56.768Z,99992.31
2024-04-22T22:59:23.789Z,99979.72
2024-04-22T23:01:55.193Z,100011.00
2024-04-22T23:04:22.554Z,99993.59
2024-04-22T23:06:49.554Z,99974.19
2024-04-22T23:09:16.486Z,99919.56
2024-04-22T23:11:43.424Z,99885.56
2024-04-22T23:14:10.387Z,99970.78
2024-04-22T23:16:37.527Z,99951.63
2024-04-22T23:19:04.446Z,99943.41
2024-04-22T23:21:31.343Z,99991.31
2024-04-22T23:23:58.370Z,100005.16
2024-04-22T23:26:25.327Z,99943.28
2024-04-22T23:28:52.524Z,99988.78
2024-04-22T23:31:19.667Z,99994.97
2024-04-22T23:33:46.649Z,99996.75
2024-04-22T23:36:13.660Z,99967.75
2024-04-22T23:38:40.629Z,99933.16
2024-04-22T23:41:07.592Z,99998.94
2024-04-22T23:43:34.671Z,99994.31
2024-04-22T23:46:01.660Z,99842.19
2024-04-22T23:48:28.568Z,99957.94
2024-04-22T23:50:55.637Z,99960.91
2024-04-22T23:53:22.574Z,99915.28
2024-04-22T23:55:49.506Z,99975.34
2024-04-22T23:58:16.425Z,99927.41
